createdAt,value
2017-12-21T00:00:22.734Z,21.50
2017-12-21T00:02:49.487Z,26.67
2017-12-21T00:05:16.225Z,27.20
2017-12-21T00:07:42.976Z,29.35
2017-12-21T00:10:09.737Z,22.80
2017-12-21T00:12:36.459Z,25.48
2017-12-21T00:15:03.184Z,29.58
2017-12-21T00:17:29.939Z,28.60
2017-12-21T00:19:56.686Z,23.45
2017-12-21T00:22:29.267Z,24.77
2017-12-21T00:24:56.018Z,27.35
2017-12-21T00:27:22.765Z,28.10
2017-12-21T00:29:49.496Z,28.48
2017-12-21T00:32:16.234Z,25.52
2017-12-21T00:34:42.969Z,23.20
2017-12-21T00:37:09.718Z,33.90
2017-12-21T00:39:36.466Z,22.52
2017-12-21T00:42:03.204Z,26.58
2017-12-21T00:44:29.939Z,28.38
2017-12-21T00:46:56.700Z,21.77
2017-12-21T00:49:23.426Z,27.65
2017-12-21T00:51:50.164Z,26.50
2017-12-21T00:54:16.911Z,21.65
2017-12-21T00:56:43.639Z,23.15
2017-12-21T00:59:10.365Z,24.42
2017-12-21T01:01:37.128Z,25.75
2017-12-21T01:04:03.854Z,28.83
2017-12-21T01:06:30.576Z,21.37
2017-12-21T01:08:57.348Z,26.75
2017-12-21T01:11:24.087Z,26.67
2017-12-21T01:13:50.856Z,23.17
2017-12-21T01:16:17.578Z,24.50
2017-12-21T01:18:44.304Z,25.35
2017-12-21T01:21:11.051Z,23.00
2017-12-21T01:23:37.792Z,27.62
2017-12-21T01:26:04.539Z,27.58
2017-12-21T01:28:31.269Z,27.05
2017-12-21T01:30:58.023Z,26.85
2017-12-21T01:33:24.790Z,24.35
2017-12-21T01:35:51.500Z,26.30
2017-12-21T01:38:18.234Z,24.20
2017-12-21T01:40:44.954Z,26.73
2017-12-21T01:43:11.693Z,24.45
2017-12-21T01:45:38.438Z,23.85
2017-12-21T01:48:05.158Z,23.55
2017-12-21T01:50:31.880Z,23.80
2017-12-21T01:52:58.604Z,25.85
2017-12-21T01:55:25.340Z,31.17
2017-12-21T01:57:52.166Z,23.10
2017-12-21T02:00:19.000Z,22.65
2017-12-21T02:02:45.755Z,23.40
2017-12-21T02:05:12.501Z,28.17
2017-12-21T02:07:39.245Z,22.27
2017-12-21T02:10:05.982Z,24.63
2017-12-21T02:12:32.707Z,25.75
2017-12-21T02:14:59.465Z,22.52
2017-12-21T02:17:26.198Z,27.75
2017-12-21T02:19:52.962Z,23.50
2017-12-21T02:22:19.745Z,22.70
2017-12-21T02:24:46.529Z,24.75
2017-12-21T02:27:13.296Z,19.65
2017-12-21T02:29:40.065Z,20.33
2017-12-21T02:32:06.868Z,23.75
2017-12-21T02:34:33.609Z,22.60
2017-12-21T02:37:00.393Z,23.80
2017-12-21T02:39:27.135Z,20.02
2017-12-21T02:41:53.874Z,21.83
2017-12-21T02:44:20.675Z,25.00
2017-12-21T02:46:47.455Z,23.67
2017-12-21T02:49:14.210Z,20.27
2017-12-21T02:51:40.967Z,23.05
2017-12-21T02:54:07.716Z,23.58
2017-12-21T02:56:34.471Z,24.52
2017-12-21T02:59:01.244Z,20.35
2017-12-21T03:01:28.011Z,24.65
2017-12-21T03:03:54.743Z,23.30
2017-12-21T03:06:21.491Z,23.33
2017-12-21T03:08:48.253Z,23.10
2017-12-21T03:11:14.991Z,20.23
2017-12-21T03:13:41.761Z,28.75
2017-12-21T03:16:08.503Z,22.83
2017-12-21T03:18:35.251Z,22.13
2017-12-21T03:21:02.008Z,26.50
2017-12-21T03:23:28.729Z,21.75
2017-12-21T03:25:55.525Z,24.83
2017-12-21T03:28:22.280Z,24.20
2017-12-21T03:30:49.085Z,21.05
2017-12-21T03:33:15.840Z,23.00
2017-12-21T03:35:42.586Z,24.67
2017-12-21T03:38:09.322Z,22.80
2017-12-21T03:40:36.087Z,23.60
2017-12-21T03:43:02.837Z,22.37
2017-12-21T03:45:29.571Z,23.55
2017-12-21T03:47:56.315Z,21.95
2017-12-21T03:50:23.092Z,25.42
2017-12-21T03:52:49.894Z,22.02
2017-12-21T03:55:16.632Z,22.27
2017-12-21T03:57:43.416Z,22.58
2017-12-21T04:00:10.175Z,22.52
2017-12-21T04:02:36.924Z,21.33
2017-12-21T04:05:03.699Z,24.05
2017-12-21T04:07:30.443Z,20.80
2017-12-21T04:09:57.247Z,20.37
2017-12-21T04:12:23.993Z,20.02
2017-12-21T04:14:50.718Z,18.73
2017-12-21T04:17:17.453Z,26.42
2017-12-21T04:19:44.216Z,24.27
2017-12-21T04:22:10.968Z,19.70
2017-12-21T04:24:38.656Z,21.08
2017-12-21T04:27:05.394Z,22.87
2017-12-21T04:29:32.114Z,21.08
2017-12-21T04:31:58.850Z,21.70
2017-12-21T04:34:25.600Z,23.92
2017-12-21T04:36:52.354Z,23.33
2017-12-21T04:39:19.086Z,19.95
2017-12-21T04:41:45.827Z,16.00
2017-12-21T04:44:12.569Z,20.08
2017-12-21T04:46:39.326Z,22.95
2017-12-21T04:49:06.087Z,18.02
2017-12-21T04:51:32.811Z,21.12
2017-12-21T04:53:59.547Z,23.83
2017-12-21T04:56:26.280Z,19.90
2017-12-21T04:58:53.020Z,22.87
2017-12-21T05:01:19.763Z,21.95
2017-12-21T05:03:46.530Z,23.60
2017-12-21T05:06:13.257Z,24.73
2017-12-21T05:08:39.984Z,17.35
2017-12-21T05:11:06.826Z,21.65
2017-12-21T05:13:33.625Z,29.65
2017-12-21T05:16:00.388Z,22.55
2017-12-21T05:18:27.153Z,22.05
2017-12-21T05:20:53.900Z,22.62
2017-12-21T05:23:20.639Z,21.33
2017-12-21T05:25:47.407Z,20.73
2017-12-21T05:28:14.147Z,26.25
2017-12-21T05:30:40.983Z,22.33
2017-12-21T05:33:07.730Z,23.05
2017-12-21T05:35:34.445Z,20.65
2017-12-21T05:38:01.180Z,20.05
2017-12-21T05:40:27.923Z,22.33
2017-12-21T05:42:54.724Z,24.00
2017-12-21T05:45:21.439Z,22.42
2017-12-21T05:47:48.202Z,23.95
2017-12-21T05:50:14.986Z,24.02
2017-12-21T05:52:41.727Z,20.48
2017-12-21T05:55:08.474Z,20.10
2017-12-21T05:57:35.203Z,22.15
2017-12-21T06:00:01.959Z,23.73
2017-12-21T06:02:28.715Z,20.08
2017-12-21T06:04:55.462Z,26.15
2017-12-21T06:07:22.234Z,23.20
2017-12-21T06:09:48.964Z,22.87
2017-12-21T06:12:15.687Z,21.90
2017-12-21T06:14:42.439Z,21.23
2017-12-21T06:17:09.185Z,20.00
2017-12-21T06:19:35.915Z,19.30
2017-12-21T06:22:02.631Z,21.50
2017-12-21T06:24:29.369Z,16.27
2017-12-21T06:26:56.090Z,20.73
2017-12-21T06:29:22.835Z,21.37
2017-12-21T06:31:49.584Z,18.42
2017-12-21T06:34:16.318Z,24.75
2017-12-21T06:36:43.067Z,23.10
2017-12-21T06:39:09.815Z,23.98
2017-12-21T06:41:36.532Z,22.55
2017-12-21T06:44:03.253Z,23.40
2017-12-21T06:46:29.992Z,24.95
2017-12-21T06:48:56.734Z,23.45
2017-12-21T06:51:23.605Z,22.87
2017-12-21T06:53:50.363Z,21.33
2017-12-21T06:56:17.095Z,20.30
2017-12-21T06:58:43.825Z,23.27
2017-12-21T07:01:10.571Z,19.62
2017-12-21T07:03:37.319Z,22.10
2017-12-21T07:06:04.045Z,17.25
2017-12-21T07:08:30.800Z,22.58
2017-12-21T07:10:57.526Z,21.48
2017-12-21T07:13:24.268Z,25.90
2017-12-21T07:15:50.990Z,22.73
2017-12-21T07:18:17.704Z,20.12
2017-12-21T07:20:44.456Z,19.33
2017-12-21T07:23:11.175Z,26.25
2017-12-21T07:25:37.903Z,18.25
2017-12-21T07:28:04.698Z,22.73
2017-12-21T07:30:31.558Z,23.58
2017-12-21T07:32:58.271Z,21.80
2017-12-21T07:35:24.995Z,18.42
2017-12-21T07:37:51.760Z,26.05
2017-12-21T07:40:18.501Z,25.50
2017-12-21T07:42:45.227Z,28.52
2017-12-21T07:45:11.981Z,26.35
2017-12-21T07:47:38.707Z,24.77
2017-12-21T07:50:05.422Z,24.48
2017-12-21T07:52:32.160Z,23.58
2017-12-21T07:54:58.893Z,22.50
2017-12-21T07:57:25.635Z,25.52
2017-12-21T07:59:52.370Z,18.35
2017-12-21T08:02:19.085Z,33.95
2017-12-21T08:04:45.826Z,22.25
2017-12-21T08:07:12.569Z,25.90
2017-12-21T08:09:39.290Z,19.87
2017-12-21T08:12:06.017Z,23.17
2017-12-21T08:14:32.777Z,26.55
2017-12-21T08:16:59.496Z,22.50
2017-12-21T08:19:26.215Z,29.00
2017-12-21T08:21:52.950Z,29.95
2017-12-21T08:24:19.701Z,22.67
2017-12-21T08:26:46.438Z,26.65
2017-12-21T08:29:13.186Z,23.75
2017-12-21T08:31:39.922Z,22.90
2017-12-21T08:34:06.815Z,27.42
2017-12-21T08:36:33.692Z,25.12
2017-12-21T08:39:00.607Z,23.30
2017-12-21T08:41:27.334Z,24.92
2017-12-21T08:43:54.085Z,26.37
2017-12-21T08:46:20.916Z,23.48
2017-12-21T08:48:47.665Z,24.87
2017-12-21T08:51:14.479Z,27.33
2017-12-21T08:53:41.221Z,21.00
2017-12-21T08:56:07.965Z,33.05
2017-12-21T08:58:34.767Z,23.12
2017-12-21T09:01:01.734Z,22.65
2017-12-21T09:03:28.545Z,25.50
2017-12-21T09:05:55.330Z,28.20
2017-12-21T09:08:22.058Z,23.67
2017-12-21T09:10:48.816Z,22.83
2017-12-21T09:13:15.576Z,24.42
2017-12-21T09:15:42.335Z,25.30
2017-12-21T09:18:09.080Z,30.42
2017-12-21T09:20:35.828Z,26.27
2017-12-21T09:23:02.618Z,21.45
2017-12-21T09:25:29.354Z,27.20
2017-12-21T09:27:56.096Z,23.90
2017-12-21T09:30:22.878Z,28.27
2017-12-21T09:32:49.629Z,27.90
2017-12-21T09:35:16.387Z,27.75
2017-12-21T09:37:43.107Z,27.92
2017-12-21T09:40:09.843Z,32.55
2017-12-21T09:42:36.622Z,27.90
2017-12-21T09:45:03.385Z,28.12
2017-12-21T09:47:30.111Z,31.35
2017-12-21T09:49:56.894Z,31.37
2017-12-21T09:52:23.683Z,29.08
2017-12-21T09:54:50.385Z,28.95
2017-12-21T09:57:17.108Z,26.77
2017-12-21T09:59:43.843Z,33.67
2017-12-21T10:02:10.565Z,27.15
2017-12-21T10:04:37.315Z,26.42
2017-12-21T10:07:04.044Z,33.00
2017-12-21T10:09:30.776Z,33.42
2017-12-21T10:11:57.503Z,28.55
2017-12-21T10:14:24.257Z,27.52
2017-12-21T10:16:51.024Z,29.67
2017-12-21T10:19:17.764Z,26.77
2017-12-21T10:21:44.502Z,23.92
2017-12-21T10:24:11.254Z,26.30
2017-12-21T10:26:38.013Z,28.40
2017-12-21T10:29:04.761Z,25.20
2017-12-21T10:31:31.503Z,26.77
2017-12-21T10:33:58.267Z,25.20
2017-12-21T10:36:25.082Z,22.65
2017-12-21T10:38:51.824Z,23.48
2017-12-21T10:41:18.584Z,23.30
2017-12-21T10:43:45.323Z,34.50
2017-12-21T10:46:12.059Z,28.40
2017-12-21T10:48:38.803Z,23.20
2017-12-21T10:51:05.541Z,25.88
2017-12-21T10:53:32.283Z,33.08
2017-12-21T10:55:59.150Z,34.05
2017-12-21T10:58:25.884Z,26.17
2017-12-21T11:00:52.630Z,28.02
2017-12-21T11:03:19.408Z,29.40
2017-12-21T11:05:46.170Z,31.20
2017-12-21T11:08:13.015Z,28.60
2017-12-21T11:10:39.795Z,27.20
2017-12-21T11:13:06.601Z,32.70
2017-12-21T11:15:33.357Z,30.70
2017-12-21T11:18:00.100Z,27.90
2017-12-21T11:20:26.859Z,32.08
2017-12-21T11:22:53.666Z,31.05
2017-12-21T11:25:20.436Z,31.85
2017-12-21T11:27:47.167Z,26.33
2017-12-21T11:30:13.909Z,31.10
2017-12-21T11:32:40.730Z,27.90
2017-12-21T11:35:07.449Z,31.73
2017-12-21T11:37:34.190Z,30.47
2017-12-21T11:40:00.954Z,33.05
2017-12-21T11:42:27.694Z,32.05
2017-12-21T11:44:54.418Z,38.37
2017-12-21T11:47:21.153Z,33.10
2017-12-21T11:49:47.904Z,28.95
2017-12-21T11:52:14.639Z,35.00
2017-12-21T11:54:41.407Z,45.55
2017-12-21T11:57:08.173Z,38.57
2017-12-21T11:59:34.895Z,42.13
2017-12-21T12:02:01.678Z,38.27
2017-12-21T12:04:28.450Z,48.60
2017-12-21T12:06:55.174Z,45.43
2017-12-21T12:09:21.964Z,41.10
2017-12-21T12:11:48.683Z,43.00
2017-12-21T12:14:15.405Z,38.60
2017-12-21T12:16:42.135Z,40.87
2017-12-21T12:19:08.868Z,35.63
2017-12-21T12:21:35.605Z,40.13
2017-12-21T12:24:02.362Z,45.63
2017-12-21T12:26:29.111Z,35.90
2017-12-21T12:28:55.883Z,49.43
2017-12-21T12:31:22.715Z,34.93
2017-12-21T12:33:49.438Z,39.77
2017-12-21T12:36:16.226Z,42.70
2017-12-21T12:38:42.976Z,41.40
2017-12-21T12:41:09.695Z,41.23
2017-12-21T12:43:36.424Z,40.20
2017-12-21T12:46:03.205Z,34.10
2017-12-21T12:48:29.937Z,47.87
2017-12-21T12:50:56.671Z,34.47
2017-12-21T12:53:23.412Z,40.67
2017-12-21T12:55:50.133Z,36.40
2017-12-21T12:58:16.870Z,37.33
2017-12-21T13:00:43.609Z,36.23
2017-12-21T13:03:10.411Z,34.30
2017-12-21T13:05:37.166Z,35.07
2017-12-21T13:08:03.961Z,39.80
2017-12-21T13:10:30.687Z,35.57
2017-12-21T13:12:57.450Z,59.63
2017-12-21T13:15:24.193Z,43.30
2017-12-21T13:17:50.931Z,56.60
2017-12-21T13:20:17.685Z,43.70
2017-12-21T13:22:44.454Z,50.47
2017-12-21T13:25:11.197Z,51.27
2017-12-21T13:27:37.938Z,46.87
2017-12-21T13:30:04.675Z,37.60
2017-12-21T13:32:31.442Z,45.80
2017-12-21T13:34:58.209Z,42.50
2017-12-21T13:37:24.975Z,40.67
2017-12-21T13:39:51.726Z,44.70
2017-12-21T13:42:18.465Z,40.20
2017-12-21T13:44:45.261Z,44.47
2017-12-21T13:47:11.996Z,44.10
2017-12-21T13:49:38.733Z,39.73
2017-12-21T13:52:05.483Z,49.27
2017-12-21T13:54:32.251Z,41.13
2017-12-21T13:56:59.002Z,45.57
2017-12-21T13:59:25.759Z,39.03
2017-12-21T14:01:52.527Z,34.00
2017-12-21T14:04:19.271Z,46.03
2017-12-21T14:06:46.059Z,37.27
2017-12-21T14:09:12.819Z,39.70
2017-12-21T14:11:39.554Z,37.33
2017-12-21T14:14:06.303Z,35.23
2017-12-21T14:16:33.032Z,39.50
2017-12-21T14:18:59.785Z,41.87
2017-12-21T14:21:26.559Z,51.97
2017-12-21T14:23:53.287Z,36.37
2017-12-21T14:26:20.042Z,34.57
2017-12-21T14:28:46.813Z,46.67
2017-12-21T14:31:13.551Z,44.37
2017-12-21T14:33:40.280Z,35.83
2017-12-21T14:36:07.022Z,48.23
2017-12-21T14:38:33.741Z,33.50
2017-12-21T14:41:00.490Z,56.30
2017-12-21T14:43:27.287Z,35.57
2017-12-21T14:45:54.028Z,37.23
2017-12-21T14:48:20.770Z,37.10
2017-12-21T14:50:47.525Z,41.07
2017-12-21T14:53:14.264Z,42.00
2017-12-21T14:55:40.995Z,38.10
2017-12-21T14:58:07.743Z,35.60
2017-12-21T15:00:34.487Z,43.13
2017-12-21T15:03:01.232Z,40.73
2017-12-21T15:05:27.990Z,38.90
2017-12-21T15:07:54.717Z,38.80
2017-12-21T15:10:21.453Z,40.20
2017-12-21T15:12:48.200Z,35.03
2017-12-21T15:15:14.920Z,34.73
2017-12-21T15:17:41.639Z,38.90
2017-12-21T15:20:08.378Z,31.33
2017-12-21T15:22:35.094Z,38.90
2017-12-21T15:25:01.857Z,33.10
2017-12-21T15:27:28.592Z,35.70
2017-12-21T15:29:55.348Z,44.93
2017-12-21T15:32:22.067Z,44.23
2017-12-21T15:34:48.847Z,38.08
2017-12-21T15:37:15.586Z,40.38
2017-12-21T15:39:42.368Z,38.72
2017-12-21T15:42:09.104Z,33.13
2017-12-21T15:44:35.846Z,36.72
2017-12-21T15:47:02.585Z,42.20
2017-12-21T15:49:29.377Z,32.38
2017-12-21T15:51:56.178Z,41.70
2017-12-21T15:54:22.908Z,32.72
2017-12-21T15:56:49.684Z,49.53
2017-12-21T15:59:16.445Z,34.72
2017-12-21T16:01:43.170Z,39.27
2017-12-21T16:04:09.931Z,38.85
2017-12-21T16:06:36.653Z,41.47
2017-12-21T16:09:03.458Z,32.72
2017-12-21T16:11:30.216Z,30.67
2017-12-21T16:13:56.946Z,35.70
2017-12-21T16:16:23.680Z,33.47
2017-12-21T16:18:50.525Z,35.50
2017-12-21T16:21:17.285Z,34.97
2017-12-21T16:23:44.048Z,34.20
2017-12-21T16:26:10.798Z,35.78
2017-12-21T16:28:37.600Z,36.58
2017-12-21T16:31:04.355Z,37.13
2017-12-21T16:33:31.161Z,38.10
2017-12-21T16:35:57.873Z,35.10
2017-12-21T16:38:24.628Z,37.10
2017-12-21T16:40:51.365Z,40.00
2017-12-21T16:43:18.115Z,35.27
2017-12-21T16:45:44.890Z,34.50
2017-12-21T16:48:11.656Z,34.67
2017-12-21T16:50:38.406Z,39.00
2017-12-21T16:53:05.163Z,36.25
2017-12-21T16:55:31.938Z,37.73
2017-12-21T16:57:58.674Z,48.83
2017-12-21T17:00:25.430Z,40.95
2017-12-21T17:02:52.190Z,34.55
2017-12-21T17:05:18.917Z,43.25
2017-12-21T17:07:45.679Z,35.58
2017-12-21T17:10:12.436Z,42.70
2017-12-21T17:12:39.179Z,39.87
2017-12-21T17:15:05.920Z,34.22
2017-12-21T17:17:32.745Z,46.00
2017-12-21T17:19:59.491Z,34.63
2017-12-21T17:22:26.220Z,40.72
2017-12-21T17:24:52.963Z,36.97
2017-12-21T17:27:19.742Z,35.50
2017-12-21T17:29:46.499Z,41.17
2017-12-21T17:32:13.367Z,38.77
2017-12-21T17:34:40.100Z,33.37
2017-12-21T17:37:06.858Z,49.65
2017-12-21T17:39:33.689Z,35.57
2017-12-21T17:42:00.503Z,38.35
2017-12-21T17:44:27.243Z,46.40
2017-12-21T17:46:53.986Z,37.15
2017-12-21T17:49:20.734Z,36.95
2017-12-21T17:51:47.499Z,38.85
2017-12-21T17:54:14.248Z,34.47
2017-12-21T17:56:41.021Z,44.80
2017-12-21T17:59:07.768Z,39.13
2017-12-21T18:01:34.552Z,39.35
2017-12-21T18:04:01.331Z,34.15
2017-12-21T18:06:28.081Z,43.83
2017-12-21T18:08:54.817Z,41.80
2017-12-21T18:11:21.571Z,41.35
2017-12-21T18:13:48.360Z,41.88
2017-12-21T18:16:15.111Z,39.17
2017-12-21T18:18:41.847Z,33.00
2017-12-21T18:21:08.658Z,37.17
2017-12-21T18:23:35.431Z,35.80
2017-12-21T18:26:02.174Z,35.10
2017-12-21T18:28:28.942Z,35.40
2017-12-21T18:30:55.707Z,34.58
2017-12-21T18:33:22.478Z,40.77
2017-12-21T18:35:49.221Z,34.35
2017-12-21T18:38:15.992Z,34.90
2017-12-21T18:40:42.740Z,34.88
2017-12-21T18:43:09.482Z,41.78
2017-12-21T18:45:36.271Z,34.85
2017-12-21T18:48:03.002Z,30.53
2017-12-21T18:50:29.762Z,37.10
2017-12-21T18:52:56.517Z,33.30
2017-12-21T18:55:23.278Z,34.95
2017-12-21T18:57:50.030Z,40.17
2017-12-21T19:00:16.828Z,39.10
2017-12-21T19:02:43.579Z,36.50
2017-12-21T19:05:10.333Z,34.60
2017-12-21T19:07:37.102Z,37.42
2017-12-21T19:10:03.866Z,31.80
2017-12-21T19:12:30.618Z,32.05
2017-12-21T19:14:57.388Z,36.47
2017-12-21T19:17:24.130Z,31.37
2017-12-21T19:19:51.587Z,33.40
2017-12-21T19:22:18.351Z,29.33
2017-12-21T19:24:45.148Z,30.17
2017-12-21T19:27:11.890Z,30.58
2017-12-21T19:29:39.014Z,28.58
2017-12-21T19:32:05.778Z,28.85
2017-12-21T19:34:32.517Z,27.60
2017-12-21T19:36:59.268Z,27.25
2017-12-21T19:39:26.006Z,31.05
2017-12-21T19:41:52.756Z,25.95
2017-12-21T19:44:19.513Z,29.87
2017-12-21T19:46:46.255Z,26.23
2017-12-21T19:49:12.992Z,23.77
2017-12-21T19:51:39.754Z,22.87
2017-12-21T19:54:06.489Z,25.27
2017-12-21T19:56:33.242Z,22.30
2017-12-21T19:59:00.001Z,26.00
2017-12-21T20:01:26.735Z,22.95
2017-12-21T20:03:54.105Z,25.33
2017-12-21T20:06:20.871Z,29.90
2017-12-21T20:08:47.599Z,25.23
2017-12-21T20:11:14.325Z,29.37
2017-12-21T20:13:41.096Z,24.40
2017-12-21T20:16:07.846Z,25.50
2017-12-21T20:18:34.568Z,31.27
2017-12-21T20:21:01.332Z,28.58
2017-12-21T20:23:28.165Z,27.23
2017-12-21T20:25:54.918Z,28.65
2017-12-21T20:28:21.783Z,30.85
2017-12-21T20:30:48.551Z,26.52
2017-12-21T20:33:15.345Z,25.83
2017-12-21T20:35:42.193Z,28.27
2017-12-21T20:38:08.937Z,26.62
2017-12-21T20:40:35.723Z,27.73
2017-12-21T20:43:02.522Z,28.15
2017-12-21T20:45:29.250Z,28.67
2017-12-21T20:47:56.095Z,25.70
2017-12-21T20:50:22.838Z,28.48
2017-12-21T20:52:49.586Z,25.30
2017-12-21T20:55:16.318Z,22.17
2017-12-21T20:57:43.043Z,30.20
2017-12-21T21:00:09.786Z,28.52
2017-12-21T21:02:36.522Z,24.90
2017-12-21T21:05:03.273Z,28.30
2017-12-21T21:07:30.004Z,27.30
2017-12-21T21:09:56.729Z,25.23
2017-12-21T21:12:23.478Z,32.67
2017-12-21T21:14:50.209Z,38.13
2017-12-21T21:17:16.940Z,29.95
2017-12-21T21:19:43.739Z,27.30
2017-12-21T21:22:10.571Z,24.10
2017-12-21T21:24:37.316Z,26.35
2017-12-21T21:27:04.064Z,23.27
2017-12-21T21:29:30.805Z,29.70
2017-12-21T21:31:57.551Z,20.62
2017-12-21T21:34:24.286Z,19.55
2017-12-21T21:36:51.027Z,26.37
2017-12-21T21:39:17.803Z,24.95
2017-12-21T21:41:44.550Z,31.25
2017-12-21T21:44:11.298Z,26.85
2017-12-21T21:46:38.218Z,30.08
2017-12-21T21:49:04.986Z,35.80
2017-12-21T21:51:31.739Z,41.08
2017-12-21T21:53:58.536Z,40.15
2017-12-21T21:56:25.290Z,39.30
2017-12-21T21:58:52.021Z,37.22
2017-12-21T22:01:18.766Z,30.10
2017-12-21T22:03:45.549Z,42.38
2017-12-21T22:06:12.307Z,29.80
2017-12-21T22:08:39.046Z,35.10
2017-12-21T22:11:05.790Z,33.97
2017-12-21T22:13:32.570Z,36.05
2017-12-21T22:15:59.322Z,43.30
2017-12-21T22:18:26.082Z,37.67
2017-12-21T22:20:52.808Z,36.45
2017-12-21T22:23:19.562Z,45.03
2017-12-21T22:25:46.336Z,46.22
2017-12-21T22:28:13.109Z,39.70
2017-12-21T22:30:39.930Z,29.73
2017-12-21T22:33:06.679Z,32.80
2017-12-21T22:35:33.429Z,30.40
2017-12-21T22:38:00.180Z,36.10
2017-12-21T22:40:26.950Z,34.25
2017-12-21T22:42:53.687Z,32.45
2017-12-21T22:45:20.441Z,30.52
2017-12-21T22:47:47.182Z,32.15
2017-12-21T22:50:13.971Z,32.22
2017-12-21T22:52:40.694Z,28.33
2017-12-21T22:55:07.453Z,31.65
2017-12-21T22:57:34.194Z,38.25
2017-12-21T23:00:00.949Z,36.67
2017-12-21T23:02:27.721Z,32.65
2017-12-21T23:04:54.471Z,34.00
2017-12-21T23:07:21.207Z,30.65
2017-12-21T23:09:47.948Z,38.70
2017-12-21T23:12:14.682Z,31.67
2017-12-21T23:14:41.406Z,31.27
2017-12-21T23:17:08.172Z,35.08
2017-12-21T23:19:34.886Z,30.20
2017-12-21T23:22:01.641Z,31.23
2017-12-21T23:24:28.392Z,30.92
2017-12-21T23:26:55.194Z,36.92
2017-12-21T23:29:21.918Z,31.37
2017-12-21T23:31:48.674Z,25.35
2017-12-21T23:34:15.408Z,36.55
2017-12-21T23:36:42.146Z,30.50
2017-12-21T23:39:08.890Z,30.65
2017-12-21T23:41:35.613Z,32.13
2017-12-21T23:44:02.337Z,34.45
2017-12-21T23:46:29.069Z,34.42
2017-12-21T23:48:55.809Z,30.55
2017-12-21T23:51:22.549Z,27.30
2017-12-21T23:53:49.369Z,30.73
2017-12-21T23:56:16.086Z,13.65
2017-12-21T23:58:42.826Z,7.03
